Time;durP1;ratioP1;P1;durP2;ratioP2;P2;SDS_P1;SDS_P2;PMS_P1;PMS_P2;Temp;Humidity;BMP_temperature;BMP_pressure;BME280_temperature;BME280_humidity;BME280_pressure;Samples;Min_cycle;Max_cycle;Signal;HPM_P1;HPM_P2
2023/07/15 00:01:48;;;;;;;;;;;23.10;64.90;;;;;;5030823;28;19912;-76
2023/07/15 00:04:14;;;;;;;;;;;23.10;65.30;;;;;;5025162;28;19913;-76
2023/07/15 00:06:40;;;;;;;;;;;23.10;65.20;;;;;;5025779;28;19921;-76
2023/07/15 00:09:06;;;;;;;;;;;23.00;65.20;;;;;;5025471;28;19913;-76
2023/07/15 00:11:41;;;;;;;;;;;23.10;64.80;;;;;;5018906;28;19919;-76
2023/07/15 00:14:18;;;;;;;;;;;23.10;64.80;;;;;;5003598;28;19921;-76
2023/07/15 00:16:43;;;;;;;;;;;23.10;65.20;;;;;;5031022;28;19916;-75
2023/07/15 00:19:09;;;;;;;;;;;23.00;65.60;;;;;;5032717;28;19913;-76
2023/07/15 00:21:35;;;;;;;;;;;22.90;66.20;;;;;;5025048;28;19913;-75
2023/07/15 00:24:01;;;;;;;;;;;23.00;66.50;;;;;;5025033;28;20430;-76
2023/07/15 00:26:34;;;;;;;;;;;23.00;66.80;;;;;;5024779;28;20546;-75
2023/07/15 00:29:01;;;;;;;;;;;23.00;67.90;;;;;;5004737;28;20000;-75
2023/07/15 00:31:27;;;;;;;;;;;22.90;66.70;;;;;;5023311;28;19913;-75
2023/07/15 00:33:52;;;;;;;;;;;23.00;66.60;;;;;;5022981;28;20633;-76
2023/07/15 00:36:18;;;;;;;;;;;23.00;65.80;;;;;;5022037;28;19920;-76
2023/07/15 00:38:44;;;;;;;;;;;23.00;66.40;;;;;;5024425;28;20031;-76
2023/07/15 00:41:17;;;;;;;;;;;23.10;65.30;;;;;;5006109;28;19913;-76
2023/07/15 00:43:58;;;;;;;;;;;23.20;64.40;;;;;;5004777;28;19960;-76
2023/07/15 00:46:56;;;;;;;;;;;23.30;63.80;;;;;;5021662;28;19932;-76
2023/07/15 00:49:23;;;;;;;;;;;23.40;62.60;;;;;;4966518;28;19917;-76
2023/07/15 00:52:13;;;;;;;;;;;23.40;63.00;;;;;;5006917;28;19928;-76
2023/07/15 00:54:40;;;;;;;;;;;23.20;64.70;;;;;;5021390;28;20481;-76
2023/07/15 00:57:06;;;;;;;;;;;23.30;63.70;;;;;;5024139;28;19918;-76
2023/07/15 00:59:32;;;;;;;;;;;23.30;63.40;;;;;;5023284;28;19928;-76
2023/07/15 01:01:58;;;;;;;;;;;23.30;64.30;;;;;;5023681;28;20303;-76
2023/07/15 01:04:23;;;;;;;;;;;23.20;64.50;;;;;;5023989;28;19913;-76
2023/07/15 01:06:49;;;;;;;;;;;23.30;64.20;;;;;;5024051;28;19952;-75
2023/07/15 01:09:15;;;;;;;;;;;23.30;66.20;;;;;;5023722;28;19913;-76
2023/07/15 01:11:41;;;;;;;;;;;23.00;68.80;;;;;;5024050;28;20288;-76
2023/07/15 01:14:09;;;;;;;;;;;23.00;68.40;;;;;;5024145;28;19913;-76
2023/07/15 01:16:35;;;;;;;;;;;23.10;68.10;;;;;;5006152;28;20036;-75
2023/07/15 01:19:02;;;;;;;;;;;23.30;67.10;;;;;;5022990;28;19913;-76
2023/07/15 01:21:30;;;;;;;;;;;23.40;65.30;;;;;;5019140;28;19914;-76
2023/07/15 01:23:55;;;;;;;;;;;23.40;64.80;;;;;;5023323;28;20435;-76
2023/07/15 01:26:21;;;;;;;;;;;23.50;64.00;;;;;;5022763;28;19921;-76
2023/07/15 01:28:47;;;;;;;;;;;23.30;65.80;;;;;;5022616;28;20004;-76
2023/07/15 01:31:13;;;;;;;;;;;23.00;69.00;;;;;;4999954;28;20376;-76
2023/07/15 01:33:38;;;;;;;;;;;22.90;69.60;;;;;;5023320;28;19913;-76
2023/07/15 01:36:04;;;;;;;;;;;22.90;69.00;;;;;;5022165;28;19913;-76
2023/07/15 01:38:31;;;;;;;;;;;23.10;68.40;;;;;;5023433;28;21034;-76
2023/07/15 01:40:56;;;;;;;;;;;23.20;66.00;;;;;;5021909;28;19913;-76
2023/07/15 01:43:22;;;;;;;;;;;23.20;66.10;;;;;;5021988;28;19983;-76
2023/07/15 01:45:47;;;;;;;;;;;23.20;65.50;;;;;;5022118;28;20453;-76
2023/07/15 01:48:13;;;;;;;;;;;23.20;65.20;;;;;;5022434;28;20412;-76
2023/07/15 01:50:39;;;;;;;;;;;23.00;65.80;;;;;;5021456;28;19925;-75
2023/07/15 01:53:05;;;;;;;;;;;22.90;67.00;;;;;;5022622;28;20560;-76
2023/07/15 01:55:31;;;;;;;;;;;22.90;66.70;;;;;;5022770;28;19928;-76
2023/07/15 01:57:56;;;;;;;;;;;23.00;65.90;;;;;;5022916;28;20312;-76
2023/07/15 02:00:22;;;;;;;;;;;23.00;65.80;;;;;;5026041;28;19932;-76
2023/07/15 02:02:48;;;;;;;;;;;22.90;66.70;;;;;;5022620;28;19917;-76
2023/07/15 02:05:13;;;;;;;;;;;22.70;67.00;;;;;;5027950;28;19917;-76
2023/07/15 02:07:39;;;;;;;;;;;23.00;66.70;;;;;;5022942;28;19925;-76
2023/07/15 02:10:05;;;;;;;;;;;23.00;66.00;;;;;;5021469;28;19952;-76
2023/07/15 02:12:31;;;;;;;;;;;23.00;65.50;;;;;;5022697;28;19913;-76
2023/07/15 02:14:56;;;;;;;;;;;23.00;64.20;;;;;;5010620;28;20368;-76
2023/07/15 02:17:23;;;;;;;;;;;23.10;64.10;;;;;;5004963;28;20526;-76
2023/07/15 02:19:51;;;;;;;;;;;23.00;64.30;;;;;;5013883;28;19917;-76
2023/07/15 02:22:17;;;;;;;;;;;23.00;64.90;;;;;;5025579;28;19924;-76
2023/07/15 02:24:43;;;;;;;;;;;22.90;64.90;;;;;;5022856;28;20371;-76
2023/07/15 02:27:09;;;;;;;;;;;22.90;64.20;;;;;;5023327;28;19925;-75
2023/07/15 02:29:34;;;;;;;;;;;23.00;63.20;;;;;;5009452;28;19924;-76
2023/07/15 02:32:00;;;;;;;;;;;23.10;62.00;;;;;;5022730;28;20550;-76
2023/07/15 02:34:26;;;;;;;;;;;23.10;62.00;;;;;;5022536;28;19972;-76
2023/07/15 02:36:52;;;;;;;;;;;23.10;61.50;;;;;;5022623;28;19920;-76
2023/07/15 02:39:18;;;;;;;;;;;23.10;61.10;;;;;;5004316;28;20023;-76
2023/07/15 02:41:44;;;;;;;;;;;23.00;61.10;;;;;;5022168;28;20012;-76
2023/07/15 02:44:10;;;;;;;;;;;23.10;61.60;;;;;;5022619;28;19921;-76
2023/07/15 02:46:35;;;;;;;;;;;23.00;61.10;;;;;;5020788;28;20431;-76
2023/07/15 02:49:02;;;;;;;;;;;23.10;61.50;;;;;;5004182;28;20431;-76
2023/07/15 02:51:28;;;;;;;;;;;23.00;61.70;;;;;;5003593;28;19987;-75
2023/07/15 02:53:54;;;;;;;;;;;22.90;63.40;;;;;;5020981;28;19917;-75
2023/07/15 02:56:20;;;;;;;;;;;22.80;66.30;;;;;;5022066;28;19914;-75
2023/07/15 02:58:46;;;;;;;;;;;22.60;68.20;;;;;;5021438;28;19920;-75
2023/07/15 03:01:14;;;;;;;;;;;22.60;69.20;;;;;;5004130;28;19909;-75
2023/07/15 03:03:39;;;;;;;;;;;22.60;69.10;;;;;;5016867;28;19913;-76
2023/07/15 03:06:05;;;;;;;;;;;22.50;69.20;;;;;;5022701;28;19917;-76
2023/07/15 03:08:31;;;;;;;;;;;22.50;70.00;;;;;;5024964;28;19913;-76
2023/07/15 03:10:56;;;;;;;;;;;22.40;70.20;;;;;;5025478;28;19914;-76
2023/07/15 03:13:25;;;;;;;;;;;22.40;70.30;;;;;;5024035;28;19970;-76
2023/07/15 03:15:52;;;;;;;;;;;22.30;70.30;;;;;;5025219;28;19913;-76
2023/07/15 03:18:17;;;;;;;;;;;22.30;69.30;;;;;;5025715;28;19917;-76
2023/07/15 03:20:43;;;;;;;;;;;22.40;69.50;;;;;;5025594;28;20326;-76
2023/07/15 03:23:08;;;;;;;;;;;22.20;69.70;;;;;;5022066;28;19917;-76
2023/07/15 03:25:34;;;;;;;;;;;22.20;69.50;;;;;;5024846;28;19956;-76
2023/07/15 03:28:00;;;;;;;;;;;22.20;68.80;;;;;;5025569;28;19991;-76
2023/07/15 03:30:26;;;;;;;;;;;22.40;68.80;;;;;;5023962;28;19913;-76
2023/07/15 03:32:56;;;;;;;;;;;22.40;68.10;;;;;;5008582;28;19909;-76
2023/07/15 03:35:21;;;;;;;;;;;22.50;67.40;;;;;;5024973;28;19913;-76
2023/07/15 03:37:47;;;;;;;;;;;22.50;67.90;;;;;;5025598;28;19946;-76
2023/07/15 03:40:13;;;;;;;;;;;22.50;67.10;;;;;;5006694;28;20783;-75
2023/07/15 03:42:39;;;;;;;;;;;22.50;67.00;;;;;;5024400;28;19920;-76
2023/07/15 03:45:05;;;;;;;;;;;22.50;66.80;;;;;;5023933;28;19917;-76
2023/07/15 03:47:31;;;;;;;;;;;22.50;67.00;;;;;;5024097;28;20587;-76
2023/07/15 03:49:57;;;;;;;;;;;22.50;66.70;;;;;;5007226;28;19933;-76
2023/07/15 03:52:22;;;;;;;;;;;22.50;67.20;;;;;;5024729;28;19917;-75
2023/07/15 03:54:48;;;;;;;;;;;22.30;67.60;;;;;;5024944;28;19913;-75
2023/07/15 03:57:13;;;;;;;;;;;22.20;69.20;;;;;;5024466;28;19913;-75
2023/07/15 03:59:39;;;;;;;;;;;22.30;67.90;;;;;;5007285;28;19939;-75
2023/07/15 04:02:05;;;;;;;;;;;22.20;67.30;;;;;;5024556;28;20377;-75
2023/07/15 04:04:31;;;;;;;;;;;22.30;67.80;;;;;;5025583;28;19913;-76
2023/07/15 04:06:57;;;;;;;;;;;22.30;67.60;;;;;;5025195;28;20273;-76
2023/07/15 04:09:23;;;;;;;;;;;22.20;71.70;;;;;;5024893;28;19948;-76
2023/07/15 04:11:49;;;;;;;;;;;22.30;71.70;;;;;;5007131;28;20004;-76
2023/07/15 04:14:16;;;;;;;;;;;22.20;72.70;;;;;;5007090;28;19967;-76
2023/07/15 04:16:42;;;;;;;;;;;22.20;72.90;;;;;;5023063;28;19914;-76
2023/07/15 04:19:07;;;;;;;;;;;22.20;71.50;;;;;;5022241;28;19928;-76
2023/07/15 04:21:33;;;;;;;;;;;22.20;71.80;;;;;;5007164;28;20015;-76
2023/07/15 04:23:59;;;;;;;;;;;22.20;72.60;;;;;;5024831;28;20039;-77
2023/07/15 04:26:25;;;;;;;;;;;22.10;73.20;;;;;;5007286;28;20020;-76
2023/07/15 04:28:51;;;;;;;;;;;22.10;73.80;;;;;;5029716;28;19995;-76
2023/07/15 04:31:17;;;;;;;;;;;22.10;72.40;;;;;;5029773;28;19917;-76
2023/07/15 04:33:43;;;;;;;;;;;22.10;72.00;;;;;;5024466;28;20415;-77
2023/07/15 04:36:09;;;;;;;;;;;22.20;71.90;;;;;;5024288;28;20440;-76
2023/07/15 04:38:35;;;;;;;;;;;22.20;71.50;;;;;;5023778;28;19956;-77
2023/07/15 04:41:00;;;;;;;;;;;22.20;72.10;;;;;;5024047;28;20380;-76
2023/07/15 04:43:26;;;;;;;;;;;22.10;72.80;;;;;;5023227;28;19913;-76
2023/07/15 04:45:52;;;;;;;;;;;22.10;70.70;;;;;;5020725;28;19951;-75
2023/07/15 04:48:17;;;;;;;;;;;22.20;70.20;;;;;;5006298;28;19925;-76
2023/07/15 04:50:45;;;;;;;;;;;22.20;69.60;;;;;;5023571;28;19940;-76
2023/07/15 04:53:10;;;;;;;;;;;22.10;69.70;;;;;;5023972;28;19913;-76
2023/07/15 04:55:36;;;;;;;;;;;22.10;69.70;;;;;;5021755;28;19920;-76
2023/07/15 04:58:02;;;;;;;;;;;22.10;70.00;;;;;;5024060;28;19921;-76
2023/07/15 05:00:27;;;;;;;;;;;22.20;70.00;;;;;;5021755;28;19921;-76
2023/07/15 05:02:53;;;;;;;;;;;22.10;69.80;;;;;;5023614;28;19917;-75
2023/07/15 05:05:19;;;;;;;;;;;22.10;69.70;;;;;;5023297;28;19935;-75
2023/07/15 05:07:44;;;;;;;;;;;22.10;69.90;;;;;;5023692;28;19917;-77
2023/07/15 05:10:10;;;;;;;;;;;22.10;70.40;;;;;;5022615;28;19948;-76
2023/07/15 05:12:36;;;;;;;;;;;21.90;74.50;;;;;;5005294;28;19921;-76
2023/07/15 05:15:02;;;;;;;;;;;21.90;74.70;;;;;;5016215;28;19917;-76
2023/07/15 05:17:28;;;;;;;;;;;21.80;74.00;;;;;;5010373;28;19952;-75
2023/07/15 05:19:53;;;;;;;;;;;21.90;75.00;;;;;;5005424;28;20044;-75
2023/07/15 05:22:19;;;;;;;;;;;22.00;74.40;;;;;;5022516;28;19925;-75
2023/07/15 05:24:44;;;;;;;;;;;22.10;73.60;;;;;;5023667;28;20502;-75
2023/07/15 05:27:10;;;;;;;;;;;21.90;73.60;;;;;;5021392;28;19921;-76
2023/07/15 05:29:36;;;;;;;;;;;22.00;74.20;;;;;;5008763;28;19915;-75
2023/07/15 05:32:02;;;;;;;;;;;22.00;74.20;;;;;;5025623;28;19921;-76
2023/07/15 05:34:27;;;;;;;;;;;22.10;74.00;;;;;;5004555;28;19991;-75
2023/07/15 05:36:53;;;;;;;;;;;22.10;74.00;;;;;;5030716;28;19924;-76
2023/07/15 05:39:19;;;;;;;;;;;22.10;74.50;;;;;;5022859;28;19959;-76
2023/07/15 05:41:45;;;;;;;;;;;22.20;74.30;;;;;;5015643;28;20006;-76
2023/07/15 05:44:10;;;;;;;;;;;22.20;74.30;;;;;;5028631;28;19917;-76
2023/07/15 05:46:37;;;;;;;;;;;22.10;74.10;;;;;;5023718;28;19925;-75
2023/07/15 05:49:04;;;;;;;;;;;22.00;74.30;;;;;;5034008;28;19924;-74
2023/07/15 05:51:30;;;;;;;;;;;22.00;73.90;;;;;;5022592;28;20412;-75
2023/07/15 05:53:56;;;;;;;;;;;21.90;74.50;;;;;;5022912;28;19959;-75
2023/07/15 05:56:22;;;;;;;;;;;21.90;75.10;;;;;;5030296;28;20657;-75
2023/07/15 05:58:48;;;;;;;;;;;21.90;75.20;;;;;;5023570;28;20035;-75
2023/07/15 06:01:13;;;;;;;;;;;21.90;75.10;;;;;;5023093;28;19913;-76
2023/07/15 06:03:39;;;;;;;;;;;21.80;75.70;;;;;;5023551;28;19919;-75
2023/07/15 06:06:05;;;;;;;;;;;21.70;76.60;;;;;;5021386;28;19917;-76
2023/07/15 06:08:33;;;;;;;;;;;21.60;77.30;;;;;;5023002;28;20300;-77
2023/07/15 06:10:59;;;;;;;;;;;21.50;78.50;;;;;;5031555;28;20004;-76
2023/07/15 06:13:24;;;;;;;;;;;21.30;79.30;;;;;;5022881;28;20565;-76
2023/07/15 06:15:50;;;;;;;;;;;21.40;79.20;;;;;;5023026;28;20492;-76
2023/07/15 06:18:16;;;;;;;;;;;21.30;80.00;;;;;;5022755;28;19917;-75
2023/07/15 06:20:42;;;;;;;;;;;21.10;81.70;;;;;;5033423;28;20430;-75
2023/07/15 06:23:08;;;;;;;;;;;21.10;82.30;;;;;;5023303;28;19931;-76
2023/07/15 06:25:34;;;;;;;;;;;21.00;83.50;;;;;;5005429;28;19913;-75
2023/07/15 06:27:59;;;;;;;;;;;20.90;84.40;;;;;;5036644;28;19998;-76
2023/07/15 06:30:26;;;;;;;;;;;20.90;85.10;;;;;;5021196;28;19944;-76
2023/07/15 06:32:54;;;;;;;;;;;20.80;87.30;;;;;;5029960;28;19916;-75
2023/07/15 06:35:20;;;;;;;;;;;20.90;88.40;;;;;;5026776;28;19921;-76
2023/07/15 06:37:46;;;;;;;;;;;21.10;88.00;;;;;;5011991;28;19924;-76
2023/07/15 06:40:14;;;;;;;;;;;21.00;88.40;;;;;;5021523;28;19920;-75
2023/07/15 06:42:40;;;;;;;;;;;20.90;89.20;;;;;;5001978;28;20352;-76
2023/07/15 06:45:06;;;;;;;;;;;21.10;89.10;;;;;;5023668;28;19923;-75
2023/07/15 06:47:31;;;;;;;;;;;21.40;87.60;;;;;;5023872;28;19936;-76
2023/07/15 06:49:57;;;;;;;;;;;21.20;87.90;;;;;;5026964;28;19933;-76
2023/07/15 06:52:22;;;;;;;;;;;21.30;88.50;;;;;;5021884;28;19917;-75
2023/07/15 06:54:50;;;;;;;;;;;21.30;87.90;;;;;;5002825;28;19920;-75
2023/07/15 06:57:15;;;;;;;;;;;21.20;87.90;;;;;;5022126;28;19913;-76
2023/07/15 06:59:41;;;;;;;;;;;21.20;88.30;;;;;;5005733;28;19920;-76
2023/07/15 07:02:07;;;;;;;;;;;21.30;87.50;;;;;;5019964;28;19917;-75
2023/07/15 07:04:32;;;;;;;;;;;21.40;87.80;;;;;;5032502;28;20537;-76
2023/07/15 07:06:58;;;;;;;;;;;21.40;87.10;;;;;;5020730;28;20443;-75
2023/07/15 07:09:23;;;;;;;;;;;21.30;87.20;;;;;;5021984;28;19917;-75
2023/07/15 07:11:49;;;;;;;;;;;21.30;87.50;;;;;;5020781;28;19912;-76
2023/07/15 07:14:14;;;;;;;;;;;21.30;87.60;;;;;;5021968;28;19913;-76
2023/07/15 07:16:40;;;;;;;;;;;21.30;87.00;;;;;;5028115;28;19913;-75
2023/07/15 07:19:06;;;;;;;;;;;21.20;88.20;;;;;;5032989;28;19913;-75
2023/07/15 07:21:31;;;;;;;;;;;21.30;88.30;;;;;;5027836;28;19919;-76
2023/07/15 07:23:57;;;;;;;;;;;21.20;88.70;;;;;;5025560;28;19936;-75
2023/07/15 07:26:22;;;;;;;;;;;21.30;88.70;;;;;;5004383;28;19971;-75
2023/07/15 07:28:48;;;;;;;;;;;21.20;89.10;;;;;;5004145;28;19920;-76
2023/07/15 07:31:16;;;;;;;;;;;21.20;89.00;;;;;;5033264;28;19919;-76
2023/07/15 07:33:41;;;;;;;;;;;21.20;89.80;;;;;;5020528;28;19913;-75
2023/07/15 07:36:07;;;;;;;;;;;21.10;89.80;;;;;;5019383;28;20399;-76
2023/07/15 07:38:33;;;;;;;;;;;21.30;89.10;;;;;;5024760;28;20516;-75
2023/07/15 07:41:08;;;;;;;;;;;21.30;89.30;;;;;;5023648;28;19917;-75
2023/07/15 07:43:36;;;;;;;;;;;21.40;89.80;;;;;;5016453;28;20468;-74
2023/07/15 07:46:06;;;;;;;;;;;21.40;90.30;;;;;;5000476;28;20109;-76
2023/07/15 07:48:32;;;;;;;;;;;21.30;90.70;;;;;;5002599;28;19921;-75
2023/07/15 07:50:59;;;;;;;;;;;21.30;90.90;;;;;;5020961;28;19932;-76
2023/07/15 07:53:25;;;;;;;;;;;21.30;91.00;;;;;;5020226;28;19925;-76
2023/07/15 07:55:50;;;;;;;;;;;21.10;91.80;;;;;;5014870;28;19921;-75
2023/07/15 07:58:16;;;;;;;;;;;21.10;92.20;;;;;;5023630;28;20419;-75
2023/07/15 08:00:42;;;;;;;;;;;21.20;92.40;;;;;;5022361;28;20384;-75
2023/07/15 08:03:08;;;;;;;;;;;21.30;92.40;;;;;;5018287;28;19940;-76
2023/07/15 08:05:34;;;;;;;;;;;21.20;92.90;;;;;;5018430;28;20412;-75
2023/07/15 08:07:59;;;;;;;;;;;21.20;93.00;;;;;;5005466;28;19963;-76
2023/07/15 08:10:25;;;;;;;;;;;21.30;93.00;;;;;;5017604;28;19917;-75
2023/07/15 08:12:50;;;;;;;;;;;21.40;92.90;;;;;;5020768;28;19917;-76
2023/07/15 08:15:16;;;;;;;;;;;21.20;92.50;;;;;;5024418;28;19917;-75
2023/07/15 08:17:41;;;;;;;;;;;21.20;93.00;;;;;;5014237;28;19971;-77
2023/07/15 08:20:10;;;;;;;;;;;21.10;92.90;;;;;;5006183;28;19952;-77
2023/07/15 08:22:35;;;;;;;;;;;21.20;92.70;;;;;;5003709;28;19917;-77
2023/07/15 08:25:01;;;;;;;;;;;21.20;92.50;;;;;;5026189;28;20288;-77
2023/07/15 08:27:26;;;;;;;;;;;21.10;91.90;;;;;;5021085;28;19917;-78
2023/07/15 08:29:52;;;;;;;;;;;21.20;92.20;;;;;;5015821;28;19913;-77
2023/07/15 08:32:18;;;;;;;;;;;21.20;91.80;;;;;;5022734;28;20308;-77
2023/07/15 08:35:09;;;;;;;;;;;21.10;91.80;;;;;;5026506;28;19921;-76
2023/07/15 08:37:35;;;;;;;;;;;21.10;92.10;;;;;;5014168;28;19928;-76
2023/07/15 08:40:00;;;;;;;;;;;21.10;92.50;;;;;;5031043;28;19909;-76
2023/07/15 08:42:27;;;;;;;;;;;21.30;91.80;;;;;;5028861;28;19917;-76
2023/07/15 08:44:53;;;;;;;;;;;21.30;91.30;;;;;;5004174;28;20020;-75
2023/07/15 08:47:22;;;;;;;;;;;21.30;91.90;;;;;;5022483;28;19929;-77
2023/07/15 08:49:48;;;;;;;;;;;21.40;91.90;;;;;;5022308;28;19956;-78
2023/07/15 08:52:17;;;;;;;;;;;21.60;91.40;;;;;;5025142;28;19953;-77
2023/07/15 08:54:43;;;;;;;;;;;21.60;91.20;;;;;;5022715;28;19996;-78
2023/07/15 08:57:09;;;;;;;;;;;21.40;91.60;;;;;;5022629;28;19923;-78
2023/07/15 08:59:34;;;;;;;;;;;21.30;91.90;;;;;;5020519;28;19963;-77
2023/07/15 09:02:00;;;;;;;;;;;21.40;91.60;;;;;;5019903;28;19980;-79
2023/07/15 09:04:25;;;;;;;;;;;21.40;91.70;;;;;;5024164;28;19912;-80
2023/07/15 09:06:52;;;;;;;;;;;21.60;91.60;;;;;;5006592;28;19975;-80
2023/07/15 09:09:18;;;;;;;;;;;21.70;92.10;;;;;;5022449;28;19927;-80
2023/07/15 09:11:44;;;;;;;;;;;21.80;92.10;;;;;;5021529;28;19913;-79
2023/07/15 09:14:14;;;;;;;;;;;21.90;91.70;;;;;;5023411;28;19917;-78
2023/07/15 09:16:39;;;;;;;;;;;22.00;91.50;;;;;;5001328;28;20014;-81
2023/07/15 09:19:05;;;;;;;;;;;22.20;91.10;;;;;;5023124;28;20031;-78
2023/07/15 09:21:31;;;;;;;;;;;22.00;91.20;;;;;;5008933;28;19960;-76
2023/07/15 09:23:59;;;;;;;;;;;22.30;90.90;;;;;;5000086;28;19968;-78
2023/07/15 09:26:25;;;;;;;;;;;22.80;90.00;;;;;;5021005;28;21018;-79
2023/07/15 09:28:50;;;;;;;;;;;22.70;89.10;;;;;;5003867;28;19924;-81
2023/07/15 09:31:25;;;;;;;;;;;22.60;89.50;;;;;;5020785;28;19913;-79
2023/07/15 09:33:51;;;;;;;;;;;22.80;88.00;;;;;;5027841;28;19920;-80
2023/07/15 09:36:27;;;;;;;;;;;22.90;87.40;;;;;;5024461;28;19917;-78
2023/07/15 09:38:53;;;;;;;;;;;22.80;86.60;;;;;;5021644;28;19913;-80
2023/07/15 09:41:19;;;;;;;;;;;23.30;85.60;;;;;;5021334;28;19924;-79
2023/07/15 09:43:45;;;;;;;;;;;23.50;85.10;;;;;;5005314;28;19927;-81
2023/07/15 09:46:12;;;;;;;;;;;23.60;85.50;;;;;;5004053;28;19964;-82
2023/07/15 09:48:38;;;;;;;;;;;23.60;85.50;;;;;;5006801;28;19936;-78
2023/07/15 09:51:04;;;;;;;;;;;24.00;83.50;;;;;;5004936;28;19929;-80
2023/07/15 09:53:30;;;;;;;;;;;24.60;80.80;;;;;;5020614;28;19917;-78
2023/07/15 09:55:56;;;;;;;;;;;24.80;78.50;;;;;;5023654;28;19940;-81
2023/07/15 09:58:22;;;;;;;;;;;25.50;77.60;;;;;;5003351;28;20373;-78
2023/07/15 10:01:00;;;;;;;;;;;24.70;78.00;;;;;;5020934;28;19979;-78
2023/07/15 10:03:32;;;;;;;;;;;24.30;79.10;;;;;;5002053;28;19920;-79
2023/07/15 10:05:58;;;;;;;;;;;24.30;79.20;;;;;;5020767;28;19909;-78
2023/07/15 10:08:24;;;;;;;;;;;24.40;79.40;;;;;;5020863;28;19928;-78
2023/07/15 10:10:49;;;;;;;;;;;24.50;79.20;;;;;;5001898;28;19917;-80
2023/07/15 10:13:15;;;;;;;;;;;25.10;78.40;;;;;;5003509;28;19924;-80
2023/07/15 10:15:41;;;;;;;;;;;24.60;76.70;;;;;;5002466;28;20328;-80
2023/07/15 10:18:13;;;;;;;;;;;24.60;77.50;;;;;;5019536;28;19924;-79
2023/07/15 10:20:45;;;;;;;;;;;25.20;75.10;;;;;;5003393;28;20399;-80
2023/07/15 10:23:11;;;;;;;;;;;26.40;74.40;;;;;;5002452;28;19924;-79
2023/07/15 10:25:40;;;;;;;;;;;27.30;69.80;;;;;;5019975;28;20024;-79
2023/07/15 10:28:14;;;;;;;;;;;27.10;70.40;;;;;;5020365;28;19933;-80
2023/07/15 10:31:00;;;;;;;;;;;27.10;71.90;;;;;;5019483;28;20364;-80
2023/07/15 10:33:25;;;;;;;;;;;26.90;71.60;;;;;;5002684;28;19917;-80
2023/07/15 10:35:51;;;;;;;;;;;26.40;73.50;;;;;;5017363;28;20360;-80
2023/07/15 10:38:27;;;;;;;;;;;26.00;74.00;;;;;;5001284;28;19913;-80
2023/07/15 10:40:59;;;;;;;;;;;26.20;74.90;;;;;;5003183;28;20339;-79
2023/07/15 10:43:34;;;;;;;;;;;27.40;72.60;;;;;;5002362;28;19917;-81
2023/07/15 10:46:04;;;;;;;;;;;26.60;70.20;;;;;;5020122;28;19921;-81
2023/07/15 10:48:29;;;;;;;;;;;25.90;73.40;;;;;;5005316;28;19932;-80
2023/07/15 10:50:57;;;;;;;;;;;25.90;76.50;;;;;;5025504;28;20402;-80
2023/07/15 10:53:25;;;;;;;;;;;26.20;75.40;;;;;;5014702;28;19924;-81
2023/07/15 10:56:01;;;;;;;;;;;26.50;74.40;;;;;;5001678;28;19924;-80
2023/07/15 10:58:28;;;;;;;;;;;26.40;75.20;;;;;;5019658;28;19923;-80
2023/07/15 11:00:59;;;;;;;;;;;27.60;71.00;;;;;;4998576;28;19940;-80
2023/07/15 11:03:24;;;;;;;;;;;28.20;69.90;;;;;;5018162;28;19923;-80
2023/07/15 11:05:50;;;;;;;;;;;28.30;69.00;;;;;;5019871;28;19913;-80
2023/07/15 11:08:19;;;;;;;;;;;28.60;68.70;;;;;;5003266;28;20400;-80
2023/07/15 11:10:45;;;;;;;;;;;28.10;67.00;;;;;;5020320;28;20028;-80
2023/07/15 11:13:11;;;;;;;;;;;28.20;69.40;;;;;;5002164;28;19921;-80
2023/07/15 11:15:37;;;;;;;;;;;27.60;68.60;;;;;;5020909;28;20162;-80
2023/07/15 11:18:03;;;;;;;;;;;27.90;69.50;;;;;;5020187;28;20727;-80
2023/07/15 11:20:28;;;;;;;;;;;28.30;69.50;;;;;;5001257;28;20316;-80
2023/07/15 11:22:54;;;;;;;;;;;28.60;68.40;;;;;;5019888;28;19917;-80
2023/07/15 11:25:20;;;;;;;;;;;28.90;69.80;;;;;;5017985;28;20520;-80
2023/07/15 11:27:46;;;;;;;;;;;28.90;72.60;;;;;;5003035;28;19922;-80
2023/07/15 11:30:11;;;;;;;;;;;29.00;71.50;;;;;;5023058;28;20476;-80
2023/07/15 11:32:37;;;;;;;;;;;28.40;74.50;;;;;;5006696;28;20782;-80
2023/07/15 11:35:12;;;;;;;;;;;28.20;76.20;;;;;;5024926;28;19917;-80
2023/07/15 11:37:42;;;;;;;;;;;27.50;72.20;;;;;;5006585;28;19944;-80
2023/07/15 11:40:13;;;;;;;;;;;27.60;74.30;;;;;;5021334;28;20117;-81
2023/07/15 11:42:39;;;;;;;;;;;28.00;73.30;;;;;;5019373;28;19971;-80
2023/07/15 11:45:04;;;;;;;;;;;28.50;75.20;;;;;;5022351;28;19921;-80
2023/07/15 11:47:32;;;;;;;;;;;28.40;70.20;;;;;;5005580;28;20021;-81
2023/07/15 11:49:58;;;;;;;;;;;28.60;72.50;;;;;;5023000;28;20308;-81
2023/07/15 11:52:24;;;;;;;;;;;28.20;73.70;;;;;;4999613;28;20047;-81
2023/07/15 11:54:50;;;;;;;;;;;28.30;72.30;;;;;;5016819;28;20798;-81
2023/07/15 11:57:26;;;;;;;;;;;28.40;71.60;;;;;;5004445;28;20668;-80
2023/07/15 11:59:51;;;;;;;;;;;28.30;72.70;;;;;;5009370;28;20471;-80
2023/07/15 12:02:19;;;;;;;;;;;27.60;73.50;;;;;;5010029;28;19917;-80
2023/07/15 12:04:45;;;;;;;;;;;27.50;74.10;;;;;;5004231;28;19949;-80
2023/07/15 12:07:11;;;;;;;;;;;27.90;74.90;;;;;;5025948;28;20020;-81
2023/07/15 12:09:36;;;;;;;;;;;28.10;73.80;;;;;;5007616;28;19917;-80
2023/07/15 12:12:02;;;;;;;;;;;27.90;74.50;;;;;;5023197;28;20498;-80
2023/07/15 12:14:31;;;;;;;;;;;27.90;75.50;;;;;;5009367;28;19928;-80
2023/07/15 12:16:59;;;;;;;;;;;28.10;73.50;;;;;;5005542;28;19963;-80
2023/07/15 12:19:25;;;;;;;;;;;28.10;72.70;;;;;;5024023;28;19916;-81
2023/07/15 12:21:51;;;;;;;;;;;27.70;73.50;;;;;;5003619;28;20024;-80
2023/07/15 12:24:17;;;;;;;;;;;27.80;74.10;;;;;;5004933;28;19917;-80
2023/07/15 12:26:42;;;;;;;;;;;28.10;74.30;;;;;;5016876;28;20027;-80
2023/07/15 12:29:08;;;;;;;;;;;27.60;71.40;;;;;;5014191;28;20735;-81
2023/07/15 12:31:34;;;;;;;;;;;27.20;74.60;;;;;;5027347;28;20684;-81
2023/07/15 12:33:59;;;;;;;;;;;27.50;76.60;;;;;;5001258;28;19917;-81
2023/07/15 12:36:25;;;;;;;;;;;27.20;75.70;;;;;;5019289;28;19917;-81
2023/07/15 12:38:50;;;;;;;;;;;27.20;76.10;;;;;;5003263;28;20431;-84
2023/07/15 12:41:16;;;;;;;;;;;27.00;77.10;;;;;;5005448;28;20451;-82
2023/07/15 12:43:41;;;;;;;;;;;27.00;77.90;;;;;;5010133;28;20315;-82
2023/07/15 12:46:07;;;;;;;;;;;27.20;75.70;;;;;;5006834;28;19925;-80
2023/07/15 12:48:33;;;;;;;;;;;27.40;74.90;;;;;;5002851;28;19972;-81
2023/07/15 12:50:59;;;;;;;;;;;27.10;75.80;;;;;;5030661;28;19924;-80
2023/07/15 12:53:24;;;;;;;;;;;27.20;76.40;;;;;;5026862;28;20438;-80
2023/07/15 12:55:51;;;;;;;;;;;27.50;74.70;;;;;;5037497;28;19912;-80
2023/07/15 12:58:16;;;;;;;;;;;27.50;73.70;;;;;;5024984;28;19920;-82
2023/07/15 13:00:42;;;;;;;;;;;27.60;74.80;;;;;;5019603;28;19917;-80
2023/07/15 13:03:09;;;;;;;;;;;27.50;74.80;;;;;;5007111;28;20269;-80
2023/07/15 13:05:35;;;;;;;;;;;27.70;72.30;;;;;;5035716;28;19976;-80
2023/07/15 13:08:01;;;;;;;;;;;27.90;72.80;;;;;;5024114;28;20344;-81
2023/07/15 13:10:26;;;;;;;;;;;27.80;73.00;;;;;;5015495;28;19948;-80
2023/07/15 13:12:52;;;;;;;;;;;27.80;73.30;;;;;;5019471;28;20031;-80
2023/07/15 13:15:18;;;;;;;;;;;27.20;72.80;;;;;;5012483;28;20295;-81
2023/07/15 13:17:46;;;;;;;;;;;26.60;75.00;;;;;;5023977;28;19913;-80
2023/07/15 13:20:12;;;;;;;;;;;26.20;76.20;;;;;;5011216;28;20410;-81
2023/07/15 13:22:38;;;;;;;;;;;26.30;76.00;;;;;;5007969;28;19959;-81
2023/07/15 13:25:04;;;;;;;;;;;26.40;76.00;;;;;;4990993;28;19917;-80
2023/07/15 13:27:31;;;;;;;;;;;26.40;75.40;;;;;;4992830;28;19929;-81
2023/07/15 13:29:57;;;;;;;;;;;26.40;77.00;;;;;;5019255;28;19956;-80
2023/07/15 13:32:26;;;;;;;;;;;26.60;75.30;;;;;;5014816;28;19996;-80
2023/07/15 13:34:52;;;;;;;;;;;26.90;74.60;;;;;;5018790;28;19917;-79
2023/07/15 13:37:17;;;;;;;;;;;26.80;74.30;;;;;;5018472;28;20443;-81
2023/07/15 13:39:45;;;;;;;;;;;27.10;73.00;;;;;;5022560;28;20722;-82
2023/07/15 13:42:18;;;;;;;;;;;27.20;72.80;;;;;;5005837;28;19913;-82
2023/07/15 13:44:44;;;;;;;;;;;27.00;73.00;;;;;;5019068;28;19924;-81
2023/07/15 13:47:09;;;;;;;;;;;27.10;72.80;;;;;;5027067;28;19929;-81
2023/07/15 13:49:35;;;;;;;;;;;27.10;73.20;;;;;;5021087;28;20578;-82
2023/07/15 13:52:00;;;;;;;;;;;26.80;72.70;;;;;;5004058;28;20619;-82
2023/07/15 13:54:26;;;;;;;;;;;27.20;73.70;;;;;;5013532;28;19959;-81
2023/07/15 13:56:52;;;;;;;;;;;27.10;73.10;;;;;;5017168;28;19917;-82
2023/07/15 13:59:18;;;;;;;;;;;26.60;74.40;;;;;;5001509;28;20126;-82
2023/07/15 14:01:44;;;;;;;;;;;25.80;75.30;;;;;;5018311;28;20251;-80
2023/07/15 14:04:10;;;;;;;;;;;25.10;78.60;;;;;;5021401;28;19920;-80
2023/07/15 14:06:36;;;;;;;;;;;24.90;78.60;;;;;;5005336;28;19921;-79
2023/07/15 14:09:03;;;;;;;;;;;24.70;77.00;;;;;;5017086;28;20445;-79
2023/07/15 14:11:29;;;;;;;;;;;24.60;77.00;;;;;;5018030;28;20034;-80
2023/07/15 14:13:54;;;;;;;;;;;24.40;78.30;;;;;;5001899;28;20671;-80